Time;durP1;ratioP1;P1;durP2;ratioP2;P2;SDS_P1;SDS_P2;PMS_P1;PMS_P2;Temp;Humidity;BMP_temperature;BMP_pressure;BME280_temperature;BME280_humidity;BME280_pressure;Samples;Min_cycle;Max_cycle;Signal;HPM_P1;HPM_P2
2022/08/29 00:01:08;;;;;;;;;2.67;2.67;;;;;22.32;43.34;101280.38;5016880;28;45351;-75
2022/08/29 00:03:35;;;;;;;;;2.00;2.00;;;;;22.37;43.64;101281.53;5028325;28;47753;-75
2022/08/29 00:06:00;;;;;;;;;5.00;3.67;;;;;22.33;43.51;101267.66;5017883;28;45463;-75
2022/08/29 00:08:26;;;;;;;;;3.67;3.00;;;;;22.38;43.26;101284.00;5016912;28;45466;-74
2022/08/29 00:10:52;;;;;;;;;2.33;2.33;;;;;22.37;43.41;101268.00;5016242;28;45303;-75
2022/08/29 00:13:17;;;;;;;;;4.67;3.67;;;;;22.41;43.83;101275.38;5016458;28;46511;-75
2022/08/29 00:15:42;;;;;;;;;3.00;3.00;;;;;22.38;43.52;101266.91;5016581;28;45317;-76
2022/08/29 00:18:08;;;;;;;;;2.00;2.00;;;;;22.38;43.93;101272.34;5016893;28;45259;-75
2022/08/29 00:20:35;;;;;;;;;4.00;4.00;;;;;22.33;43.12;101268.47;5016798;28;45404;-75
2022/08/29 00:23:02;;;;;;;;;3.00;3.00;;;;;22.37;43.70;101276.09;5016334;28;45513;-75
2022/08/29 00:25:28;;;;;;;;;2.00;1.33;;;;;22.39;43.45;101284.81;5023671;28;45537;-75
2022/08/29 00:27:53;;;;;;;;;2.67;2.00;;;;;22.38;43.31;101283.16;5023561;28;45333;-75
2022/08/29 00:30:20;;;;;;;;;1.33;1.33;;;;;22.35;43.17;101279.06;5016288;28;45235;-76
2022/08/29 00:32:45;;;;;;;;;2.00;2.00;;;;;22.35;43.48;101281.75;5016744;28;45355;-75
2022/08/29 00:35:19;;;;;;;;;3.00;3.00;;;;;22.36;43.22;101279.88;5028942;28;45476;-75
2022/08/29 00:37:44;;;;;;;;;2.67;2.67;;;;;22.31;43.24;101278.72;5016974;28;45312;-76
2022/08/29 00:40:14;;;;;;;;;3.00;3.00;;;;;22.33;43.25;101284.72;5016298;28;45278;-75
2022/08/29 00:42:39;;;;;;;;;0.33;0.00;;;;;22.29;43.30;101283.56;5020598;28;48423;-75
2022/08/29 00:45:07;;;;;;;;;2.33;2.33;;;;;22.31;43.30;101283.31;5016310;28;45348;-76
2022/08/29 00:47:37;;;;;;;;;2.00;2.00;;;;;22.27;43.70;101284.88;5016647;28;45302;-75
2022/08/29 00:50:06;;;;;;;;;3.50;3.00;;;;;22.24;44.09;101286.16;5016477;28;45324;-75
2022/08/29 00:52:45;;;;;;;;;2.00;2.00;;;;;22.26;43.24;101292.16;5051388;28;48240;-74
2022/08/29 00:55:15;;;;;;;;;2.00;2.00;;;;;22.22;43.14;101282.03;5022822;28;45343;-75
2022/08/29 00:57:45;;;;;;;;;2.00;2.00;;;;;22.13;43.65;101276.19;5016145;28;45344;-75
2022/08/29 01:00:13;;;;;;;;;3.00;1.33;;;;;22.17;43.46;101289.00;5015956;28;45505;-75
2022/08/29 01:02:39;;;;;;;;;3.33;3.33;;;;;22.09;43.97;101280.44;5033814;28;47440;-75
2022/08/29 01:05:09;;;;;;;;;4.00;4.00;;;;;22.02;43.99;101280.56;5024941;28;45380;-75
2022/08/29 01:07:36;;;;;;;;;2.00;2.00;;;;;22.02;44.05;101281.38;5016096;28;45309;-75
2022/08/29 01:10:03;;;;;;;;;3.00;3.00;;;;;22.00;43.99;101285.41;5016199;28;45338;-74
2022/08/29 01:12:29;;;;;;;;;2.67;2.33;;;;;21.96;43.89;101278.81;5015827;28;45440;-75
2022/08/29 01:14:59;;;;;;;;;2.00;2.00;;;;;21.92;43.38;101287.41;5023073;28;45392;-76
2022/08/29 01:17:29;;;;;;;;;2.00;2.00;;;;;21.92;43.59;101281.16;5031217;28;45313;-75
2022/08/29 01:20:10;;;;;;;;;2.00;2.00;;;;;21.82;43.88;101277.19;5018490;28;47109;-75
2022/08/29 01:22:38;;;;;;;;;2.67;2.67;;;;;21.86;44.11;101272.13;5015711;28;45639;-74
2022/08/29 01:25:10;;;;;;;;;1.00;1.00;;;;;21.82;44.45;101266.34;5021938;28;45357;-75
2022/08/29 01:27:39;;;;;;;;;2.00;2.00;;;;;21.84;43.87;101278.84;5037746;28;45336;-75
2022/08/29 01:30:05;;;;;;;;;2.67;2.00;;;;;21.77;44.54;101273.53;5050850;28;47260;-75
2022/08/29 01:32:31;;;;;;;;;3.00;1.33;;;;;21.76;44.16;101277.31;5018924;28;45447;-75
2022/08/29 01:34:57;;;;;;;;;2.00;2.00;;;;;21.70;44.23;101273.66;5018473;28;45368;-75
2022/08/29 01:37:27;;;;;;;;;1.00;1.00;;;;;21.66;44.37;101272.47;5024686;28;45342;-74
2022/08/29 01:39:52;;;;;;;;;2.00;2.00;;;;;21.63;44.68;101264.81;5037301;28;46765;-75
2022/08/29 01:42:21;;;;;;;;;2.00;2.00;;;;;21.63;44.32;101265.66;5053754;28;48083;-75
2022/08/29 01:44:56;;;;;;;;;3.67;2.00;;;;;21.63;44.79;101268.34;5102562;27;45361;-75
2022/08/29 01:47:24;;;;;;;;;1.00;1.00;;;;;21.59;44.83;101266.34;5022305;27;45453;-75
2022/08/29 01:49:49;;;;;;;;;2.00;2.00;;;;;21.52;44.39;101245.66;5018519;28;45447;-75
2022/08/29 01:52:15;;;;;;;;;1.67;1.67;;;;;21.53;45.00;101260.84;5034687;28;45813;-75
2022/08/29 01:54:42;;;;;;;;;3.00;3.00;;;;;21.50;45.13;101253.19;5028879;28;45299;-75
2022/08/29 01:57:09;;;;;;;;;2.33;2.33;;;;;21.51;44.70;101262.94;5018393;28;45351;-75
2022/08/29 01:59:35;;;;;;;;;3.00;1.33;;;;;21.48;45.20;101260.72;5018466;28;45383;-75
2022/08/29 02:02:18;;;;;;;;;1.00;1.00;;;;;21.42;44.90;101246.25;5018217;28;46433;-75
2022/08/29 02:04:45;;;;;;;;;2.67;2.67;;;;;21.42;44.88;101259.78;5018543;28;45406;-75
2022/08/29 02:07:12;;;;;;;;;2.33;1.00;;;;;21.37;45.20;101256.13;5017100;28;45387;-75
2022/08/29 02:09:38;;;;;;;;;2.67;2.00;;;;;21.32;44.99;101248.72;5018380;28;45523;-75
2022/08/29 02:12:06;;;;;;;;;4.00;2.00;;;;;21.33;45.49;101252.25;5045424;28;46600;-75
2022/08/29 02:14:35;;;;;;;;;2.00;2.00;;;;;21.31;45.34;101241.69;5019039;28;45318;-75
2022/08/29 02:17:02;;;;;;;;;2.33;1.00;;;;;21.33;45.49;101246.84;5018405;28;45355;-75
2022/08/29 02:19:27;;;;;;;;;2.00;2.00;;;;;21.32;45.36;101246.03;5030812;28;47324;-75
2022/08/29 02:21:53;;;;;;;;;3.00;3.00;;;;;21.26;45.50;101245.09;5018284;28;46283;-75
2022/08/29 02:24:18;;;;;;;;;1.67;1.67;;;;;21.28;45.69;101244.84;5017882;28;45539;-75
2022/08/29 02:26:43;;;;;;;;;2.67;1.00;;;;;21.26;45.22;101246.94;5032166;28;45346;-75
2022/08/29 02:29:11;;;;;;;;;2.00;2.00;;;;;21.25;45.74;101248.03;5018222;28;45345;-75
2022/08/29 02:31:38;;;;;;;;;1.00;1.00;;;;;21.25;45.31;101248.03;5017687;28;45410;-75
2022/08/29 02:34:03;;;;;;;;;2.00;1.00;;;;;21.24;45.36;101260.69;5017674;28;45314;-75
2022/08/29 02:36:28;;;;;;;;;2.33;2.00;;;;;21.18;45.62;101254.34;5017982;28;45413;-75
2022/08/29 02:38:54;;;;;;;;;2.00;2.00;;;;;21.19;45.72;101258.69;5017713;28;45422;-75
2022/08/29 02:41:19;;;;;;;;;3.00;3.00;;;;;21.17;45.91;101251.88;5017969;28;46186;-75
2022/08/29 02:43:45;;;;;;;;;1.00;1.00;;;;;21.18;46.14;101261.63;5017826;28;45375;-75
2022/08/29 02:46:18;;;;;;;;;2.00;2.00;;;;;21.16;45.62;101261.06;5023162;28;45349;-74
2022/08/29 02:48:45;;;;;;;;;3.00;3.00;;;;;21.15;45.91;101260.22;5017896;28;45318;-75
2022/08/29 02:51:18;;;;;;;;;1.33;1.33;;;;;21.11;46.04;101250.94;5017932;28;46735;-75
2022/08/29 02:53:43;;;;;;;;;2.00;2.00;;;;;21.13;46.14;101250.72;5017945;28;45339;-75
2022/08/29 02:56:08;;;;;;;;;1.67;1.00;;;;;21.12;46.09;101257.16;5024335;28;45455;-74
2022/08/29 02:58:34;;;;;;;;;2.00;2.00;;;;;21.15;46.31;101256.69;5023876;28;45471;-75
2022/08/29 03:00:59;;;;;;;;;2.00;2.00;;;;;21.08;46.03;101261.38;5017465;28;45297;-75
2022/08/29 03:03:26;;;;;;;;;1.67;1.67;;;;;21.06;46.16;101262.44;5017949;28;45651;-75
2022/08/29 03:05:51;;;;;;;;;2.00;2.00;;;;;21.07;46.55;101265.94;5017708;28;45433;-74
2022/08/29 03:08:17;;;;;;;;;2.00;2.00;;;;;21.06;46.52;101262.44;5025575;28;47319;-75
2022/08/29 03:10:43;;;;;;;;;2.00;2.00;;;;;21.06;46.43;101246.22;5021687;28;46483;-75
2022/08/29 03:13:10;;;;;;;;;2.00;1.33;;;;;21.03;46.57;101249.41;5017622;28;45294;-75
2022/08/29 03:15:35;;;;;;;;;2.00;2.00;;;;;21.03;46.75;101245.88;5017611;28;45240;-74
2022/08/29 03:18:01;;;;;;;;;3.67;3.67;;;;;21.05;46.61;101250.00;5017349;28;45253;-75
2022/08/29 03:20:26;;;;;;;;;3.00;2.33;;;;;21.03;46.67;101253.97;5017411;28;46474;-75
2022/08/29 03:22:53;;;;;;;;;2.00;2.00;;;;;21.02;46.80;101247.75;5017219;28;45259;-75
2022/08/29 03:25:20;;;;;;;;;3.00;2.00;;;;;21.02;46.75;101239.66;5023423;28;45354;-74
2022/08/29 03:27:46;;;;;;;;;2.33;2.33;;;;;21.02;46.51;101246.94;5025261;28;45328;-74
2022/08/29 03:32:39;;;;;;;;;4.67;3.00;;;;;20.95;46.47;101241.63;5016356;28;72716;-75
2022/08/29 03:35:06;;;;;;;;;2.33;2.00;;;;;20.91;46.42;101232.34;5018184;28;45313;-75
2022/08/29 03:37:31;;;;;;;;;2.67;1.33;;;;;20.89;46.29;101246.03;5017665;28;45370;-75
2022/08/29 03:39:57;;;;;;;;;2.00;2.00;;;;;20.86;46.71;101240.28;5017735;28;46304;-75
2022/08/29 03:42:22;;;;;;;;;3.00;2.00;;;;;20.85;46.60;101247.56;5017809;28;45218;-75
2022/08/29 03:44:47;;;;;;;;;2.00;2.00;;;;;20.79;46.92;101237.69;5018078;28;45293;-75
2022/08/29 03:47:13;;;;;;;;;2.33;2.33;;;;;20.79;46.86;101243.09;5016522;28;45468;-75
2022/08/29 03:49:39;;;;;;;;;2.00;1.00;;;;;20.78;46.90;101244.97;5028159;28;45575;-75
2022/08/29 03:52:05;;;;;;;;;1.33;1.33;;;;;20.73;46.87;101242.13;5036378;28;45368;-75
2022/08/29 03:54:31;;;;;;;;;4.33;3.00;;;;;20.72;47.00;101242.34;5031234;28;45495;-75
2022/08/29 03:56:57;;;;;;;;;2.00;2.00;;;;;20.67;47.01;101243.88;5024025;28;47065;-75
2022/08/29 03:59:23;;;;;;;;;5.67;4.00;;;;;20.68;47.56;101236.59;5028804;28;45310;-75
2022/08/29 04:01:49;;;;;;;;;2.67;2.67;;;;;20.69;46.86;101249.06;5017014;28;45347;-75
2022/08/29 04:07:00;;;;;;;;;2.00;2.00;;;;;20.61;47.36;101244.78;5030872;28;45349;-75
2022/08/29 04:09:27;;;;;;;;;2.67;2.67;;;;;20.60;47.51;101245.03;5016967;28;45305;-75
2022/08/29 04:11:52;;;;;;;;;2.67;2.67;;;;;20.56;47.33;101240.09;5015644;28;46119;-75
2022/08/29 04:14:19;;;;;;;;;1.00;1.00;;;;;20.53;47.10;101242.44;5030716;28;45658;-75
2022/08/29 04:16:47;;;;;;;;;6.00;6.00;;;;;20.51;47.44;101245.34;5026337;28;45685;-75
2022/08/29 04:19:12;;;;;;;;;18.00;17.00;;;;;20.52;47.20;101248.88;5019140;28;46062;-75
2022/08/29 04:21:38;;;;;;;;;16.33;15.67;;;;;20.51;47.37;101248.06;5016984;28;45337;-75
2022/08/29 04:24:03;;;;;;;;;32.00;28.67;;;;;20.48;47.67;101242.28;5030099;28;45478;-75
2022/08/29 04:26:29;;;;;;;;;50.50;41.00;;;;;20.46;47.90;101244.38;5017013;28;45406;-75
2022/08/29 04:28:54;;;;;;;;;56.50;45.00;;;;;20.40;47.96;101238.03;5027936;28;47030;-74
2022/08/29 04:31:20;;;;;;;;;58.00;44.75;;;;;20.40;47.99;101244.25;5017897;28;45321;-75
2022/08/29 04:33:46;;;;;;;;;69.50;56.75;;;;;20.38;47.99;101248.25;5017060;28;45343;-75
2022/08/29 04:36:13;;;;;;;;;67.00;52.25;;;;;20.39;48.04;101247.19;5016507;28;45645;-75
2022/08/29 04:38:38;;;;;;;;;92.00;83.50;;;;;20.37;47.92;101244.72;5016386;28;46192;-75
2022/08/29 04:41:08;;;;;;;;;88.25;80.25;;;;;20.29;48.35;101243.13;5016644;28;45348;-75
2022/08/29 04:43:33;;;;;;;;;109.75;93.50;;;;;20.30;48.14;101252.06;5017069;28;45434;-75
2022/08/29 04:45:59;;;;;;;;;103.25;93.25;;;;;20.28;48.06;101252.28;5016508;28;45400;-75
2022/08/29 04:48:25;;;;;;;;;117.00;107.75;;;;;20.28;48.42;101249.59;5016282;28;46696;-75
2022/08/29 04:50:59;;;;;;;;;67.50;55.25;;;;;20.29;47.93;101258.50;5016653;28;45698;-75
2022/08/29 04:53:25;;;;;;;;;74.25;65.75;;;;;20.21;47.92;101256.97;5016366;28;45373;-75
2022/08/29 04:56:03;;;;;;;;;92.25;79.50;;;;;20.22;48.25;101261.28;5016621;28;45276;-75
2022/08/29 04:58:29;;;;;;;;;83.75;73.75;;;;;20.19;48.21;101264.44;5029627;28;45731;-75
2022/08/29 05:00:55;;;;;;;;;105.00;97.50;;;;;20.22;48.25;101279.34;5020696;28;45356;-75
2022/08/29 05:03:22;;;;;;;;;80.50;70.00;;;;;20.22;48.29;101271.25;5016386;28;45298;-75
2022/08/29 05:06:06;;;;;;;;;101.75;90.25;;;;;20.15;48.07;101264.09;5016443;28;45314;-75
2022/08/29 05:08:33;;;;;;;;;104.25;90.75;;;;;20.20;48.29;101278.78;5015980;28;46592;-74
2022/08/29 05:10:59;;;;;;;;;98.25;86.25;;;;;20.17;48.15;101278.16;5016144;28;45338;-75
2022/08/29 05:13:24;;;;;;;;;51.75;42.00;;;;;20.13;48.17;101289.63;5016493;28;45644;-75
2022/08/29 05:15:49;;;;;;;;;15.33;12.33;;;;;20.12;48.41;101280.72;5017890;28;45380;-75
2022/08/29 05:18:17;;;;;;;;;27.00;24.33;;;;;20.12;48.47;101288.81;5034664;28;48110;-75
2022/08/29 05:20:46;;;;;;;;;66.00;53.00;;;;;20.13;48.52;101301.25;5017807;28;45325;-75
2022/08/29 05:23:13;;;;;;;;;94.00;87.25;;;;;20.11;48.51;101292.56;5025169;28;45411;-75
2022/08/29 05:25:39;;;;;;;;;19.33;17.00;;;;;20.06;48.46;101281.63;5019177;28;45494;-75
2022/08/29 05:28:04;;;;;;;;;48.67;40.33;;;;;20.05;49.00;101279.94;5015964;28;45213;-75
2022/08/29 05:30:30;;;;;;;;;45.67;36.00;;;;;20.00;48.60;101275.22;5015720;28;45593;-77
2022/08/29 05:32:56;;;;;;;;;50.50;39.75;;;;;20.06;48.84;101289.72;5018191;28;45453;-75
2022/08/29 05:35:22;;;;;;;;;66.50;54.25;;;;;20.06;49.04;101301.31;5015892;28;45543;-76
2022/08/29 05:37:48;;;;;;;;;82.75;75.75;;;;;20.02;48.84;101297.41;5029507;28;48014;-75
2022/08/29 05:40:13;;;;;;;;;101.50;89.00;;;;;20.01;49.45;101292.25;5015828;28;45357;-75
2022/08/29 05:42:39;;;;;;;;;65.25;53.25;;;;;20.04;49.19;101297.19;5015975;28;45299;-75
2022/08/29 05:45:05;;;;;;;;;96.00;82.00;;;;;20.05;48.72;101306.94;5015528;28;45502;-75
2022/08/29 05:47:31;;;;;;;;;91.75;79.50;;;;;20.11;49.31;101316.03;5015239;28;45686;-76
2022/08/29 05:49:57;;;;;;;;;95.25;86.75;;;;;20.08;49.21;101308.38;5014209;28;45391;-75
2022/08/29 05:52:24;;;;;;;;;23.33;20.00;;;;;20.06;49.09;101306.72;5015973;28;45373;-75
2022/08/29 05:54:49;;;;;;;;;25.67;22.67;;;;;20.11;49.06;101310.63;5024151;28;45689;-75
2022/08/29 05:57:19;;;;;;;;;21.00;15.00;;;;;20.10;48.96;101307.09;5023487;28;45231;-75
2022/08/29 05:59:45;;;;;;;;;41.67;33.33;;;;;20.16;49.46;101305.38;5022110;28;45350;-74
2022/08/29 06:02:11;;;;;;;;;72.00;63.00;;;;;20.15;49.29;101307.25;5015383;28;45398;-75
2022/08/29 06:04:37;;;;;;;;;44.00;35.67;;;;;20.20;49.39;101316.53;5015526;28;45286;-76
2022/08/29 06:07:04;;;;;;;;;50.25;40.50;;;;;20.21;49.44;101320.88;5015151;28;45441;-75
2022/08/29 06:09:30;;;;;;;;;64.25;49.00;;;;;20.20;49.37;101316.53;5015901;28;45242;-75
2022/08/29 06:11:57;;;;;;;;;73.25;63.50;;;;;20.25;49.65;101313.97;5029049;28;45531;-75
2022/08/29 06:14:23;;;;;;;;;84.50;75.50;;;;;20.27;48.92;101320.00;5018359;28;45476;-75
2022/08/29 06:16:48;;;;;;;;;98.50;88.00;;;;;20.28;49.25;101327.03;5028190;28;46647;-75
2022/08/29 06:19:14;;;;;;;;;76.00;68.25;;;;;20.27;49.18;101326.22;5053433;28;45361;-76
2022/08/29 06:21:39;;;;;;;;;98.75;85.50;;;;;20.28;49.42;101325.16;5026754;28;45822;-75
2022/08/29 06:24:05;;;;;;;;;61.75;48.75;;;;;20.28;48.76;101322.47;5018077;28;45400;-77
2022/08/29 06:26:31;;;;;;;;;116.75;98.75;;;;;20.33;49.10;101327.19;5018023;28;46666;-76
2022/08/29 06:28:57;;;;;;;;;73.75;66.50;;;;;20.31;49.51;101330.13;5018281;28;45490;-77
2022/08/29 06:31:26;;;;;;;;;44.67;36.33;;;;;20.39;49.18;101336.25;5032840;28;45456;-75
2022/08/29 06:33:54;;;;;;;;;6.00;6.00;;;;;20.39;49.11;101345.19;5018503;28;45439;-77
2022/08/29 06:36:20;;;;;;;;;34.33;29.00;;;;;20.41;49.24;101344.97;5018139;28;46196;-76
2022/08/29 06:38:45;;;;;;;;;25.67;23.00;;;;;20.39;49.39;101338.94;5035432;28;45332;-76
2022/08/29 06:41:14;;;;;;;;;5.00;4.00;;;;;20.42;49.23;101344.69;5027531;28;45395;-75
2022/08/29 06:43:40;;;;;;;;;33.00;28.67;;;;;20.46;49.40;101346.94;5018055;28;45161;-75
2022/08/29 06:46:07;;;;;;;;;3.33;3.00;;;;;20.46;49.47;101345.09;5017891;28;45509;-76
2022/08/29 06:48:33;;;;;;;;;4.00;4.00;;;;;20.51;49.10;101344.41;5017981;28;45237;-75
2022/08/29 06:51:02;;;;;;;;;4.67;4.67;;;;;20.49;49.33;101341.94;5018241;28;45413;-76
2022/08/29 06:53:28;;;;;;;;;3.33;3.00;;;;;20.53;49.27;101351.22;5017908;28;45463;-75
2022/08/29 06:55:54;;;;;;;;;14.67;13.00;;;;;20.56;49.10;101347.25;5022605;28;47030;-75
2022/08/29 06:58:20;;;;;;;;;76.75;67.50;;;;;20.60;49.50;101344.94;5030909;28;45863;-75
2022/08/29 07:00:45;;;;;;;;;39.67;33.67;;;;;20.61;48.99;101349.28;5035088;28;45387;-75
2022/08/29 07:03:12;;;;;;;;;6.00;5.33;;;;;20.60;49.07;101344.94;5036929;28;45479;-76
2022/08/29 07:05:37;;;;;;;;;66.75;53.25;;;;;20.66;49.34;101352.13;5032741;28;47959;-75
2022/08/29 07:08:03;;;;;;;;;102.25;89.25;;;;;20.72;49.02;101362.03;5034071;27;45345;-75
2022/08/29 07:10:29;;;;;;;;;45.25;36.50;;;;;20.68;49.21;101348.13;5035523;28;45283;-75
2022/08/29 07:12:54;;;;;;;;;51.75;41.50;;;;;20.75;48.94;101349.94;5028287;28;45366;-76
2022/08/29 07:15:21;;;;;;;;;80.75;70.25;;;;;20.78;48.83;101355.72;5033575;28;45494;-76
2022/08/29 07:17:47;;;;;;;;;69.25;54.00;;;;;20.77;49.13;101343.25;5030676;28;45494;-76
2022/08/29 07:20:13;;;;;;;;;51.25;41.75;;;;;20.84;49.22;101347.72;5029923;28;45386;-76
2022/08/29 07:22:39;;;;;;;;;51.50;40.50;;;;;20.91;48.83;101348.50;5022241;27;45383;-76
2022/08/29 07:25:05;;;;;;;;;42.00;34.00;;;;;20.96;48.58;101345.94;5018423;28;46633;-75
2022/08/29 07:27:31;;;;;;;;;62.75;50.00;;;;;20.97;48.74;101352.97;5017607;28;45236;-76
2022/08/29 07:29:56;;;;;;;;;31.67;28.33;;;;;20.94;48.23;101348.03;5032772;28;45378;-75
2022/08/29 07:32:22;;;;;;;;;65.75;54.00;;;;;20.98;48.31;101351.13;5018621;28;45490;-77
2022/08/29 07:34:47;;;;;;;;;126.25;111.75;;;;;20.98;48.40;101351.91;5017422;28;45462;-75
2022/08/29 07:37:12;;;;;;;;;57.25;45.00;;;;;21.03;48.55;101353.94;5017279;28;45193;-75
2022/08/29 07:39:38;;;;;;;;;22.67;20.00;;;;;21.01;47.94;101342.56;5017543;28;45346;-76
2022/08/29 07:42:04;;;;;;;;;39.67;32.33;;;;;21.01;48.49;101343.34;5026641;28;46762;-75
2022/08/29 07:44:29;;;;;;;;;85.00;78.00;;;;;21.08;48.96;101351.38;5017437;28;45555;-76
2022/08/29 07:46:56;;;;;;;;;98.00;90.00;;;;;21.11;48.93;101355.50;5017199;28;45445;-75
2022/08/29 07:49:22;;;;;;;;;54.25;42.75;;;;;21.14;48.87;101352.34;5108723;27;45383;-75
2022/08/29 07:51:49;;;;;;;;;49.75;40.50;;;;;21.13;48.72;101345.28;5026446;28;45368;-76
2022/08/29 07:54:15;;;;;;;;;58.50;46.75;;;;;21.20;48.36;101346.00;5016918;28;45659;-76
2022/08/29 07:56:41;;;;;;;;;82.75;72.50;;;;;21.30;48.63;101358.94;5019207;28;45379;-75
2022/08/29 07:59:07;;;;;;;;;32.67;29.00;;;;;21.27;48.52;101346.72;5029000;28;45649;-75
2022/08/29 08:01:34;;;;;;;;;29.00;26.33;;;;;21.31;48.49;101352.50;5016935;28;45575;-75
2022/08/29 08:04:00;;;;;;;;;67.25;53.25;;;;;21.37;49.61;101345.34;5017050;28;45371;-75
2022/08/29 08:06:25;;;;;;;;;16.33;14.00;;;;;21.49;48.86;101350.78;5028204;28;45419;-75
2022/08/29 08:08:52;;;;;;;;;20.00;20.00;;;;;21.51;48.52;101348.63;5022219;27;45402;-76
2022/08/29 08:11:18;;;;;;;;;48.33;37.33;;;;;21.54;48.76;101349.00;5044967;28;47535;-74
2022/08/29 08:13:44;;;;;;;;;14.33;13.33;;;;;21.65;47.54;101357.38;5019957;28;45667;-76
2022/08/29 08:16:19;;;;;;;;;19.00;18.33;;;;;21.67;48.18;101350.66;5029517;27;45215;-75
2022/08/29 08:18:46;;;;;;;;;13.33;13.00;;;;;21.68;48.08;101337.97;5017209;28;45377;-75
2022/08/29 08:21:12;;;;;;;;;17.67;16.67;;;;;21.80;47.69;101354.22;5029726;28;47139;-76
2022/08/29 08:23:38;;;;;;;;;38.33;33.00;;;;;21.83;47.52;101340.22;5017201;28;45234;-76
2022/08/29 08:26:04;;;;;;;;;41.00;32.67;;;;;21.93;47.54;101345.03;5018010;28;46739;-74
2022/08/29 08:28:30;;;;;;;;;17.33;17.33;;;;;21.97;47.21;101342.69;5033337;28;45327;-75
2022/08/29 08:30:57;;;;;;;;;15.00;11.00;;;;;22.04;46.95;101344.22;5032496;28;45401;-75
2022/08/29 08:33:23;;;;;;;;;69.25;56.50;;;;;22.16;46.83;101346.06;5035324;28;46448;-75
2022/08/29 08:35:49;;;;;;;;;63.50;50.50;;;;;22.23;46.91;101346.78;5036098;28;45547;-76
2022/08/29 08:38:15;;;;;;;;;8.67;7.67;;;;;22.27;46.78;101337.09;5031740;28;45585;-75
2022/08/29 08:40:47;;;;;;;;;32.00;27.33;;;;;22.34;46.64;101347.81;5018889;28;45375;-77
2022/08/29 08:43:18;;;;;;;;;85.00;79.75;;;;;22.42;46.92;101350.13;5019744;27;46156;-76
2022/08/29 08:45:43;;;;;;;;;71.00;62.25;;;;;22.46;46.58;101339.66;5018589;28;45436;-76
2022/08/29 08:48:33;;;;;;;;;53.75;42.00;;;;;22.56;46.86;101349.84;5020772;28;45396;-76
2022/08/29 08:51:03;;;;;;;;;12.67;11.00;;;;;22.64;46.22;101343.28;5018448;28;45938;-75
2022/08/29 08:53:43;;;;;;;;;4.67;4.67;;;;;22.71;46.07;101338.53;5021733;28;46404;-75
2022/08/29 08:56:21;;;;;;;;;6.00;5.00;;;;;22.76;46.41;101335.94;5016589;28;45376;-76
2022/08/29 08:58:54;;;;;;;;;4.00;3.00;;;;;22.78;46.26;101341.91;5034591;28;45217;-75
2022/08/29 09:01:25;;;;;;;;;86.00;76.25;;;;;22.90;46.35;101351.91;5022940;28;45365;-75
2022/08/29 09:04:19;;;;;;;;;65.00;53.25;;;;;22.99;46.30;101345.03;5024687;28;46598;-76
2022/08/29 09:06:57;;;;;;;;;28.00;24.67;;;;;23.07;46.10;101349.19;5015836;28;45363;-76
2022/08/29 09:10:01;;;;;;;;;4.67;3.00;;;;;23.06;45.76;101342.97;5017367;28;45634;-75
2022/08/29 09:12:52;;;;;;;;;5.00;5.00;;;;;23.18;46.01;101339.38;5022544;28;45591;-75
2022/08/29 09:15:31;;;;;;;;;74.25;66.50;;;;;23.26;46.02;101341.69;5019717;28;46318;-76
2022/08/29 09:18:06;;;;;;;;;24.00;23.67;;;;;23.37;45.61;101341.88;5025985;28;45397;-76
2022/08/29 09:20:36;;;;;;;;;9.00;9.00;;;;;23.41;44.94;101343.84;5016223;28;45329;-74
2022/08/29 09:23:31;;;;;;;;;6.00;6.00;;;;;23.53;45.17;101340.22;5043150;28;46215;-74
2022/08/29 09:25:58;;;;;;;;;9.00;5.67;;;;;23.61;45.11;101341.72;5015912;28;46669;-74
2022/08/29 09:28:23;;;;;;;;;30.00;27.67;;;;;23.70;45.02;101348.34;5015867;28;45467;-75
2022/08/29 09:31:16;;;;;;;;;10.33;9.00;;;;;23.82;44.91;101340.09;5016168;28;45400;-75
2022/08/29 09:33:45;;;;;;;;;9.00;6.67;;;;;23.93;44.79;101338.38;5015344;28;45408;-75
2022/08/29 09:36:13;;;;;;;;;6.00;6.00;;;;;24.06;44.83;101345.31;5013568;28;46605;-75
2022/08/29 09:38:39;;;;;;;;;4.00;4.00;;;;;24.14;44.81;101341.38;5031445;28;45384;-75
2022/08/29 09:41:07;;;;;;;;;5.67;5.00;;;;;24.26;44.56;101349.41;5023104;28;45294;-75
2022/08/29 09:43:46;;;;;;;;;44.67;36.00;;;;;24.37;44.38;101343.03;5027163;28;45979;-75
2022/08/29 09:46:17;;;;;;;;;9.33;8.33;;;;;24.46;44.31;101344.22;5016915;28;45410;-74
2022/08/29 09:48:46;;;;;;;;;17.67;16.67;;;;;24.57;44.24;101345.16;5018329;28;45452;-74
2022/08/29 09:51:11;;;;;;;;;69.50;60.50;;;;;24.71;44.32;101344.75;5018786;28;45441;-74
2022/08/29 09:53:37;;;;;;;;;82.00;79.75;;;;;24.79;43.55;101346.22;5018472;28;45309;-74
2022/08/29 09:56:06;;;;;;;;;55.75;44.50;;;;;24.90;43.87;101345.25;5021841;28;46797;-74
2022/08/29 09:58:39;;;;;;;;;54.75;42.75;;;;;24.99;43.55;101340.16;5032491;28;45333;-74
2022/08/29 10:01:17;;;;;;;;;8.00;6.00;;;;;25.13;43.57;101342.47;5017317;28;45315;-74
2022/08/29 10:03:53;;;;;;;;;9.00;9.00;;;;;25.26;42.87;101335.78;5018593;28;45333;-75
2022/08/29 10:06:28;;;;;;;;;65.25;56.50;;;;;25.37;42.99;101340.22;5018523;28;46443;-74
2022/08/29 10:08:58;;;;;;;;;22.00;22.00;;;;;25.46;43.11;101325.06;5035897;28;45349;-74
2022/08/29 10:11:59;;;;;;;;;71.75;63.00;;;;;25.66;42.68;101331.75;5034141;28;45577;-76
2022/08/29 10:14:48;;;;;;;;;66.00;52.25;;;;;25.83;42.54;101328.84;5038153;27;45460;-77
2022/08/29 10:20:17;;;;;;;;;38.33;31.00;;;;;26.16;41.92;101320.56;5033552;28;45530;-78
2022/08/29 10:22:51;;;;;;;;;12.67;12.00;;;;;26.36;42.36;101315.50;5034640;28;45498;-77
2022/08/29 10:25:35;;;;;;;;;6.67;4.67;;;;;26.54;41.38;101330.53;5024614;28;46477;-76
2022/08/29 10:28:24;;;;;;;;;8.33;7.00;;;;;26.70;41.26;101328.66;5017950;28;47311;-76
2022/08/29 10:31:07;;;;;;;;;25.33;24.67;;;;;26.80;41.02;101323.22;5031435;28;45227;-76
2022/08/29 10:33:53;;;;;;;;;74.00;68.50;;;;;27.04;41.61;101328.19;5027808;28;45354;-77
2022/08/29 10:36:19;;;;;;;;;10.33;9.00;;;;;27.23;40.52;101327.63;5034084;28;46431;-77
2022/08/29 10:39:09;;;;;;;;;10.33;10.33;;;;;27.32;40.06;101315.06;5033536;28;47303;-79
2022/08/29 10:41:58;;;;;;;;;6.00;6.00;;;;;27.52;39.98;101335.25;5017257;28;45411;-78
2022/08/29 10:44:42;;;;;;;;;23.33;23.33;;;;;27.64;39.78;101324.03;5018405;28;45357;-79
2022/08/29 10:47:34;;;;;;;;;8.00;8.00;;;;;27.76;39.78;101310.13;5018281;28;45369;-80
2022/08/29 10:50:05;;;;;;;;;8.33;6.33;;;;;27.90;38.55;101309.53;5018428;28;45404;-78
2022/08/29 10:52:42;;;;;;;;;8.00;6.00;;;;;27.99;39.10;101305.13;5020310;28;45210;-78
2022/08/29 10:55:33;;;;;;;;;1.67;1.67;;;;;28.09;39.39;101313.28;5033301;28;45470;-77
2022/08/29 10:58:21;;;;;;;;;6.00;6.00;;;;;28.17;38.76;101311.06;5036541;28;45649;-78
2022/08/29 11:00:54;;;;;;;;;10.67;10.67;;;;;28.30;38.54;101313.19;5016288;28;46953;-80
2022/08/29 11:03:25;;;;;;;;;58.25;46.75;;;;;28.44;38.27;101307.13;5017425;28;45409;-78
2022/08/29 11:06:00;;;;;;;;;8.67;7.67;;;;;28.57;38.30;101294.72;5025356;28;45372;-76
2022/08/29 11:08:32;;;;;;;;;16.67;13.67;;;;;28.78;38.21;101303.59;5022941;28;45306;-77
2022/08/29 11:10:57;;;;;;;;;61.75;49.00;;;;;28.90;37.37;101299.69;5017583;28;46381;-74
2022/08/29 11:13:34;;;;;;;;;45.67;38.33;;;;;28.95;37.64;101305.97;5017946;28;45184;-75
2022/08/29 11:16:14;;;;;;;;;12.00;10.00;;;;;29.14;37.87;101297.06;5023338;28;45542;-77
2022/08/29 11:18:42;;;;;;;;;18.33;14.67;;;;;29.30;37.65;101294.19;5025014;28;45420;-75
2022/08/29 11:21:28;;;;;;;;;50.33;41.00;;;;;29.41;37.28;101294.88;5029469;28;47216;-78
2022/08/29 11:23:56;;;;;;;;;33.67;28.33;;;;;29.54;37.14;101287.91;5032059;28;45413;-76
2022/08/29 11:26:44;;;;;;;;;64.50;54.25;;;;;29.78;37.15;101292.59;5018876;28;45445;-78
2022/08/29 11:29:54;;;;;;;;;38.33;32.00;;;;;29.92;36.97;101296.25;5024263;28;45341;-77
2022/08/29 11:32:45;;;;;;;;;50.00;40.33;;;;;30.02;36.03;101289.84;5066208;28;46563;-77
2022/08/29 11:35:20;;;;;;;;;11.00;10.33;;;;;30.05;35.84;101289.22;5030367;28;45523;-77